Time;durP1;ratioP1;P1;durP2;ratioP2;P2;SDS_P1;SDS_P2;PMS_P1;PMS_P2;Temp;Humidity;BMP_temperature;BMP_pressure;BME280_temperature;BME280_humidity;BME280_pressure;Samples;Min_cycle;Max_cycle;Signal;HPM_P1;HPM_P2
2022/02/25 00:00:35;;;;;;;;;;;;;;;10.88;51.20;100213.13;4405851;32;20013;-72
2022/02/25 00:03:01;;;;;;;;;;;;;;;11.27;50.12;100228.66;4409406;32;19949;-72
2022/02/25 00:05:26;;;;;;;;;;;;;;;11.00;50.65;100242.47;4408584;32;19958;-72
2022/02/25 00:07:52;;;;;;;;;;;;;;;11.54;49.48;100243.78;4407666;32;19954;-74
2022/02/25 00:10:18;;;;;;;;;;;;;;;11.07;50.77;100242.22;4405789;32;20034;-74
2022/02/25 00:12:46;;;;;;;;;;;;;;;11.35;50.34;100239.22;4398465;32;19996;-73
2022/02/25 00:15:11;;;;;;;;;;;;;;;11.48;49.91;100248.41;4408152;32;19962;-75
2022/02/25 00:17:37;;;;;;;;;;;;;;;11.49;49.64;100264.09;4407112;32;19993;-75
2022/02/25 00:20:02;;;;;;;;;;;;;;;11.22;49.97;100265.84;4408363;32;20655;-72
2022/02/25 00:22:28;;;;;;;;;;;;;;;11.39;49.34;100275.75;4407696;32;19954;-75
2022/02/25 00:24:54;;;;;;;;;;;;;;;11.26;49.10;100280.63;4391643;32;20005;-76
2022/02/25 00:27:19;;;;;;;;;;;;;;;11.35;48.93;100300.44;4396419;32;20459;-76
2022/02/25 00:29:45;;;;;;;;;;;;;;;11.36;48.32;100282.28;4408733;32;19954;-75
2022/02/25 00:32:10;;;;;;;;;;;;;;;11.31;48.38;100289.28;4407571;32;19973;-75
2022/02/25 00:34:36;;;;;;;;;;;;;;;11.79;47.66;100290.84;4408252;32;19953;-73
2022/02/25 00:37:02;;;;;;;;;;;;;;;11.77;47.45;100296.12;4407585;32;19953;-73
2022/02/25 00:39:28;;;;;;;;;;;;;;;11.75;47.70;100298.63;4408354;32;19945;-73
2022/02/25 00:41:53;;;;;;;;;;;;;;;11.97;47.42;100307.91;4407449;32;20056;-73
2022/02/25 00:44:19;;;;;;;;;;;;;;;11.87;47.71;100328.78;4409460;32;19989;-73
2022/02/25 00:46:44;;;;;;;;;;;;;;;12.00;47.29;100330.31;4406670;32;19993;-72
2022/02/25 00:49:10;;;;;;;;;;;;;;;11.66;47.65;100335.97;4409015;32;20005;-72
2022/02/25 00:51:38;;;;;;;;;;;;;;;11.98;47.39;100338.47;4407656;32;20560;-72
2022/02/25 00:54:05;;;;;;;;;;;;;;;11.90;47.17;100337.12;4408465;32;20336;-72
2022/02/25 00:56:34;;;;;;;;;;;;;;;11.58;47.62;100351.53;4409959;32;20001;-72
2022/02/25 00:59:00;;;;;;;;;;;;;;;12.08;46.82;100379.59;4408563;32;19995;-72
2022/02/25 01:01:25;;;;;;;;;;;;;;;12.06;46.81;100387.72;4385195;32;20050;-72
2022/02/25 01:03:54;;;;;;;;;;;;;;;12.13;46.88;100374.59;4406235;32;20017;-72
2022/02/25 01:06:22;;;;;;;;;;;;;;;11.99;47.31;100396.44;4406716;32;20018;-72
2022/02/25 01:08:53;;;;;;;;;;;;;;;12.22;47.07;100391.59;4400344;32;20362;-72
2022/02/25 01:11:19;;;;;;;;;;;;;;;12.60;46.28;100383.72;4407208;32;20000;-72
2022/02/25 01:13:44;;;;;;;;;;;;;;;12.73;45.97;100379.56;4407526;32;19997;-72
2022/02/25 01:16:10;;;;;;;;;;;;;;;12.61;46.03;100402.25;4407785;32;20029;-72
2022/02/25 01:18:36;;;;;;;;;;;;;;;12.31;46.90;100409.41;4408258;32;20005;-71
2022/02/25 01:21:02;;;;;;;;;;;;;;;12.86;45.62;100421.84;4409528;32;19993;-72
2022/02/25 01:23:29;;;;;;;;;;;;;;;12.99;46.07;100434.69;4406019;32;20005;-73
2022/02/25 01:25:55;;;;;;;;;;;;;;;12.76;46.81;100466.19;4407284;32;19965;-73
2022/02/25 01:28:21;;;;;;;;;;;;;;;12.63;47.61;100465.47;4409268;32;19965;-72
2022/02/25 01:30:49;;;;;;;;;;;;;;;12.53;47.93;100483.59;4407900;32;20289;-72
2022/02/25 01:33:18;;;;;;;;;;;;;;;12.93;47.32;100480.87;4408000;32;19958;-73
2022/02/25 01:35:43;;;;;;;;;;;;;;;12.60;48.01;100491.78;4406546;32;20004;-72
2022/02/25 01:38:13;;;;;;;;;;;;;;;12.42;47.89;100508.56;4408105;32;20694;-72
2022/02/25 01:40:38;;;;;;;;;;;;;;;12.51;47.53;100517.09;4405875;32;19975;-71
2022/02/25 01:43:04;;;;;;;;;;;;;;;12.84;46.76;100497.75;4411917;32;20347;-71
2022/02/25 01:45:35;;;;;;;;;;;;;;;12.69;47.16;100511.63;4408417;32;19993;-71
2022/02/25 01:48:01;;;;;;;;;;;;;;;12.31;47.92;100527.91;4410144;32;20392;-71
2022/02/25 01:50:26;;;;;;;;;;;;;;;12.22;47.98;100510.09;4410947;32;19973;-73
2022/02/25 01:53:08;;;;;;;;;;;;;;;12.74;46.94;100524.38;4410749;32;19957;-72
2022/02/25 01:55:35;;;;;;;;;;;;;;;12.88;46.14;100521.81;4408564;32;20011;-72
2022/02/25 01:58:00;;;;;;;;;;;;;;;12.87;46.19;100525.88;4411953;32;19972;-73
2022/02/25 02:00:26;;;;;;;;;;;;;;;13.15;45.47;100532.53;4409835;32;19982;-73
2022/02/25 02:02:52;;;;;;;;;;;;;;;13.29;45.32;100544.06;4412801;32;19965;-73
2022/02/25 02:05:18;;;;;;;;;;;;;;;13.21;45.42;100539.16;4411842;32;20043;-73
2022/02/25 02:07:44;;;;;;;;;;;;;;;13.33;45.24;100539.09;4409785;32;20004;-73
2022/02/25 02:10:09;;;;;;;;;;;;;;;13.18;45.48;100551.38;4408978;32;20710;-73
2022/02/25 02:12:35;;;;;;;;;;;;;;;13.36;45.41;100557.16;4409798;32;19964;-73
2022/02/25 02:15:01;;;;;;;;;;;;;;;13.45;45.50;100560.03;4410681;32;19989;-73
2022/02/25 02:17:26;;;;;;;;;;;;;;;13.02;46.12;100568.53;4410084;32;19962;-73
2022/02/25 02:19:52;;;;;;;;;;;;;;;13.87;44.99;100572.53;4410396;32;20425;-73
2022/02/25 02:22:22;;;;;;;;;;;;;;;13.88;44.52;100580.53;4397163;32;20024;-73
2022/02/25 02:24:48;;;;;;;;;;;;;;;14.04;44.42;100576.66;4410502;32;19967;-74
2022/02/25 02:27:13;;;;;;;;;;;;;;;13.50;44.96;100580.00;4411039;32;19989;-73
2022/02/25 02:29:39;;;;;;;;;;;;;;;13.79;44.47;100572.00;4409913;32;19953;-74
2022/02/25 02:32:04;;;;;;;;;;;;;;;13.76;44.36;100575.78;4410605;32;20008;-73
2022/02/25 02:34:31;;;;;;;;;;;;;;;13.49;44.86;100578.44;4410672;32;19953;-74
2022/02/25 02:36:57;;;;;;;;;;;;;;;13.19;45.74;100589.72;4410838;32;19949;-73
2022/02/25 02:39:22;;;;;;;;;;;;;;;13.29;45.66;100602.66;4410137;32;20041;-73
2022/02/25 02:41:50;;;;;;;;;;;;;;;13.17;45.67;100597.84;4408121;32;19998;-74
2022/02/25 02:44:15;;;;;;;;;;;;;;;13.73;44.76;100604.19;4410109;32;20348;-74
2022/02/25 02:46:41;;;;;;;;;;;;;;;13.38;45.23;100608.38;4410068;32;19958;-74
2022/02/25 02:49:08;;;;;;;;;;;;;;;13.39;45.20;100610.75;4410672;32;19988;-74
2022/02/25 02:51:34;;;;;;;;;;;;;;;13.42;44.78;100618.31;4395657;32;20431;-74
2022/02/25 02:54:00;;;;;;;;;;;;;;;12.98;46.09;100615.88;4408687;32;20007;-74
2022/02/25 02:56:26;;;;;;;;;;;;;;;13.08;45.80;100617.56;4410816;32;19965;-74
2022/02/25 02:58:59;;;;;;;;;;;;;;;13.36;45.63;100628.62;4411384;32;20010;-75
2022/02/25 03:01:25;;;;;;;;;;;;;;;13.75;45.03;100635.62;4411317;32;20276;-75
2022/02/25 03:03:51;;;;;;;;;;;;;;;13.57;44.95;100627.03;4410534;32;19963;-75
2022/02/25 03:06:16;;;;;;;;;;;;;;;13.33;45.56;100631.56;4401148;32;19953;-74
2022/02/25 03:08:44;;;;;;;;;;;;;;;13.57;45.07;100630.63;4408911;32;20315;-75
2022/02/25 03:11:10;;;;;;;;;;;;;;;13.72;44.70;100645.03;4407283;32;20004;-75
2022/02/25 03:13:41;;;;;;;;;;;;;;;13.67;44.51;100668.25;4409327;32;19977;-74
2022/02/25 03:16:08;;;;;;;;;;;;;;;13.51;45.56;100680.56;4408710;32;20057;-74
2022/02/25 03:18:36;;;;;;;;;;;;;;;13.38;46.22;100684.69;4410115;32;19969;-73
2022/02/25 03:21:03;;;;;;;;;;;;;;;13.75;45.68;100681.66;4408701;32;20005;-71
2022/02/25 03:23:32;;;;;;;;;;;;;;;13.57;45.39;100672.28;4409232;32;19976;-71
2022/02/25 03:25:57;;;;;;;;;;;;;;;13.56;45.11;100688.44;4407461;32;20351;-71
2022/02/25 03:28:23;;;;;;;;;;;;;;;13.37;45.50;100683.09;4410235;32;19953;-71
2022/02/25 03:30:49;;;;;;;;;;;;;;;13.85;44.74;100686.12;4408942;32;19989;-71
2022/02/25 03:33:14;;;;;;;;;;;;;;;13.09;46.43;100687.75;4409148;32;19965;-71
2022/02/25 03:35:40;;;;;;;;;;;;;;;13.19;46.77;100689.38;4409351;32;20009;-71
2022/02/25 03:38:06;;;;;;;;;;;;;;;13.39;46.44;100695.53;4401961;32;20319;-72
2022/02/25 03:40:32;;;;;;;;;;;;;;;13.78;45.64;100694.87;4409473;32;19957;-72
2022/02/25 03:42:58;;;;;;;;;;;;;;;13.61;45.76;100696.34;4410569;32;19999;-71
2022/02/25 03:45:23;;;;;;;;;;;;;;;13.76;45.51;100693.75;4409000;32;20001;-72
2022/02/25 03:47:49;;;;;;;;;;;;;;;13.69;45.51;100702.53;4406924;32;20003;-72
2022/02/25 03:50:14;;;;;;;;;;;;;;;13.74;45.28;100705.53;4408169;32;19997;-72
2022/02/25 03:52:40;;;;;;;;;;;;;;;14.22;44.35;100711.78;4411306;32;19959;-72
2022/02/25 03:55:06;;;;;;;;;;;;;;;13.49;45.55;100719.81;4408950;32;20016;-72
2022/02/25 03:57:31;;;;;;;;;;;;;;;13.06;46.28;100718.94;4408580;32;20394;-72
2022/02/25 03:59:57;;;;;;;;;;;;;;;13.67;45.62;100711.47;4408803;32;19961;-72
2022/02/25 04:02:22;;;;;;;;;;;;;;;13.64;45.11;100732.19;4408709;32;20362;-72
2022/02/25 04:04:48;;;;;;;;;;;;;;;13.64;44.85;100743.50;4407486;32;20016;-72
2022/02/25 04:07:14;;;;;;;;;;;;;;;14.08;44.08;100747.06;4409762;32;20396;-73
2022/02/25 04:09:39;;;;;;;;;;;;;;;14.23;43.89;100736.81;4405718;32;19972;-73
2022/02/25 04:12:05;;;;;;;;;;;;;;;14.00;44.03;100755.03;4409662;32;20366;-73
2022/02/25 04:14:31;;;;;;;;;;;;;;;13.05;45.81;100780.31;4410107;32;19962;-73
2022/02/25 04:16:56;;;;;;;;;;;;;;;13.31;45.37;100759.22;4408248;32;20212;-74
2022/02/25 04:19:22;;;;;;;;;;;;;;;13.37;45.11;100773.53;4406790;32;19954;-74
2022/02/25 04:21:48;;;;;;;;;;;;;;;13.71;44.43;100771.50;4408403;32;19949;-74
2022/02/25 04:24:13;;;;;;;;;;;;;;;13.61;44.77;100775.50;4409355;32;20522;-74
2022/02/25 04:26:40;;;;;;;;;;;;;;;13.84;43.99;100777.13;4407818;32;19971;-75
2022/02/25 04:29:05;;;;;;;;;;;;;;;13.69;43.83;100782.47;4408528;32;20388;-74
2022/02/25 04:31:30;;;;;;;;;;;;;;;13.31;44.63;100783.84;4409149;32;20028;-74
2022/02/25 04:33:56;;;;;;;;;;;;;;;13.45;44.72;100786.19;4409926;32;20399;-74
2022/02/25 04:36:21;;;;;;;;;;;;;;;13.74;44.09;100803.72;4407498;32;19984;-74
2022/02/25 04:38:47;;;;;;;;;;;;;;;13.47;44.34;100817.63;4408826;32;20004;-74
2022/02/25 04:41:13;;;;;;;;;;;;;;;13.43;44.33;100809.28;4408339;32;20267;-75
2022/02/25 04:43:39;;;;;;;;;;;;;;;13.76;43.83;100816.19;4407954;32;19953;-74
2022/02/25 04:46:05;;;;;;;;;;;;;;;13.51;43.98;100826.78;4409280;32;19965;-74
2022/02/25 04:48:30;;;;;;;;;;;;;;;13.58;43.64;100829.34;4408792;32;20016;-74
2022/02/25 04:50:56;;;;;;;;;;;;;;;13.42;44.29;100844.44;4409350;32;20362;-74
2022/02/25 04:53:21;;;;;;;;;;;;;;;13.54;44.10;100846.47;4409063;32;19998;-74
2022/02/25 04:55:47;;;;;;;;;;;;;;;13.32;44.81;100848.41;4407346;32;20315;-74
2022/02/25 04:58:13;;;;;;;;;;;;;;;13.43;44.67;100845.22;4409514;32;19998;-74
2022/02/25 05:00:39;;;;;;;;;;;;;;;13.11;45.16;100839.84;4400919;32;20065;-75
2022/02/25 05:03:04;;;;;;;;;;;;;;;13.56;44.52;100855.25;4409214;32;19957;-74
2022/02/25 05:05:30;;;;;;;;;;;;;;;13.92;43.74;100860.47;4407929;32;20005;-74
2022/02/25 05:07:58;;;;;;;;;;;;;;;13.49;44.36;100869.66;4409784;32;19958;-74
2022/02/25 05:10:24;;;;;;;;;;;;;;;13.58;44.40;100860.47;4407904;32;20004;-74
2022/02/25 05:12:49;;;;;;;;;;;;;;;13.49;44.80;100882.97;4409199;32;20029;-75
2022/02/25 05:20:45;;;;;;;;;;;;;;;13.89;44.02;100887.63;4410535;32;20004;-74
2022/02/25 05:23:11;;;;;;;;;;;;;;;13.98;43.94;100896.22;4411106;32;20339;-75
2022/02/25 05:25:36;;;;;;;;;;;;;;;14.11;43.88;100887.66;4412773;32;19961;-74
2022/02/25 05:28:02;;;;;;;;;;;;;;;13.84;44.25;100882.56;4411736;32;19957;-75
2022/02/25 05:30:31;;;;;;;;;;;;;;;14.08;43.83;100888.56;4410066;32;20327;-75
2022/02/25 05:32:57;;;;;;;;;;;;;;;13.96;43.91;100883.75;4397467;32;20016;-74
2022/02/25 05:35:23;;;;;;;;;;;;;;;13.62;44.32;100881.72;4412741;32;20033;-74
2022/02/25 05:37:49;;;;;;;;;;;;;;;13.62;44.52;100887.38;4412302;32;20001;-75
2022/02/25 05:40:15;;;;;;;;;;;;;;;13.80;44.20;100892.41;4409730;32;20363;-74
2022/02/25 05:42:41;;;;;;;;;;;;;;;13.38;44.66;100885.38;4411049;32;19968;-74
2022/02/25 05:45:08;;;;;;;;;;;;;;;13.59;44.35;100882.62;4411025;32;20351;-74
2022/02/25 05:47:34;;;;;;;;;;;;;;;13.67;44.56;100883.97;4410069;32;19949;-74
2022/02/25 05:50:01;;;;;;;;;;;;;;;13.83;44.27;100883.81;4411318;32;19991;-74
2022/02/25 05:52:26;;;;;;;;;;;;;;;13.82;44.29;100904.87;4411311;32;19965;-75
2022/02/25 05:54:52;;;;;;;;;;;;;;;14.09;43.81;100921.31;4412022;32;19950;-74
2022/02/25 05:57:18;;;;;;;;;;;;;;;14.09;44.77;100922.06;4411474;32;20328;-74
2022/02/25 05:59:43;;;;;;;;;;;;;;;14.33;44.28;100933.00;4408497;32;19965;-74
2022/02/25 06:02:09;;;;;;;;;;;;;;;13.75;45.36;100950.34;4411369;32;20605;-72
2022/02/25 06:04:35;;;;;;;;;;;;;;;13.71;45.43;100980.00;4409943;32;20013;-71
2022/02/25 06:07:00;;;;;;;;;;;;;;;13.65;46.08;100976.94;4408424;32;20033;-71
2022/02/25 06:09:26;;;;;;;;;;;;;;;14.00;45.57;100975.75;4409077;32;20420;-72
2022/02/25 06:11:51;;;;;;;;;;;;;;;13.62;44.98;100983.50;4410805;32;19989;-72
2022/02/25 06:14:17;;;;;;;;;;;;;;;12.95;45.85;100965.00;4411217;32;20414;-72
2022/02/25 06:16:42;;;;;;;;;;;;;;;13.31;45.41;100964.75;4409954;32;20350;-72
2022/02/25 06:19:08;;;;;;;;;;;;;;;13.09;45.25;100973.09;4411388;32;19969;-73
2022/02/25 06:21:33;;;;;;;;;;;;;;;13.07;45.12;100977.62;4409492;32;19984;-73
2022/02/25 06:24:00;;;;;;;;;;;;;;;13.34;44.56;100970.28;4410536;32;20357;-73
2022/02/25 06:26:25;;;;;;;;;;;;;;;13.32;44.42;100986.91;4410246;32;21582;-73
2022/02/25 06:28:52;;;;;;;;;;;;;;;13.34;44.22;100986.44;4409906;32;19957;-73
2022/02/25 06:31:18;;;;;;;;;;;;;;;13.08;44.76;100996.97;4409743;32;19972;-73
2022/02/25 06:33:44;;;;;;;;;;;;;;;13.33;43.86;101007.50;4409429;32;20013;-73
2022/02/25 06:36:10;;;;;;;;;;;;;;;13.28;43.56;101000.38;4410076;32;20354;-73
2022/02/25 06:38:36;;;;;;;;;;;;;;;13.10;44.22;101008.59;4410695;32;19962;-73
2022/02/25 06:41:02;;;;;;;;;;;;;;;13.36;43.72;101006.59;4395453;32;20306;-74
2022/02/25 06:43:28;;;;;;;;;;;;;;;13.20;43.97;101012.34;4410498;32;19997;-74
2022/02/25 06:45:53;;;;;;;;;;;;;;;13.39;43.57;101014.16;4409069;32;19997;-74
2022/02/25 06:48:19;;;;;;;;;;;;;;;13.46;43.35;101011.09;4411008;32;19993;-74
2022/02/25 06:50:44;;;;;;;;;;;;;;;13.45;43.11;101013.16;4409552;32;19957;-75
2022/02/25 06:53:10;;;;;;;;;;;;;;;13.20;44.08;101024.41;4408505;32;20004;-74
2022/02/25 06:55:35;;;;;;;;;;;;;;;13.01;44.38;101024.63;4408959;32;20003;-74
2022/02/25 06:58:03;;;;;;;;;;;;;;;13.28;43.90;101025.81;4408522;32;20098;-74
2022/02/25 07:00:29;;;;;;;;;;;;;;;12.97;44.69;101023.87;4409283;32;19957;-74
2022/02/25 07:02:55;;;;;;;;;;;;;;;12.93;44.80;101037.34;4387145;32;19999;-74
2022/02/25 07:05:21;;;;;;;;;;;;;;;13.31;44.24;101039.03;4409543;32;19957;-74
2022/02/25 07:07:47;;;;;;;;;;;;;;;13.40;44.16;101058.94;4407929;32;20409;-74
2022/02/25 07:10:13;;;;;;;;;;;;;;;13.15;44.43;101056.06;4408196;32;19972;-74
2022/02/25 07:12:39;;;;;;;;;;;;;;;13.44;44.14;101062.44;4408902;32;20354;-74
2022/02/25 07:15:05;;;;;;;;;;;;;;;13.35;44.20;101075.69;4408989;32;20374;-74
2022/02/25 07:17:31;;;;;;;;;;;;;;;13.22;44.46;101088.97;4399071;32;20315;-74
2022/02/25 07:19:57;;;;;;;;;;;;;;;13.27;44.33;101086.41;4408873;32;20343;-74
2022/02/25 07:22:23;;;;;;;;;;;;;;;13.49;43.82;101109.16;4408665;32;20245;-74
2022/02/25 07:24:49;;;;;;;;;;;;;;;13.65;43.60;101107.06;4408769;32;19958;-74
2022/02/25 07:27:14;;;;;;;;;;;;;;;13.66;43.71;101116.34;4409274;32;20247;-74
2022/02/25 07:29:40;;;;;;;;;;;;;;;14.00;42.99;101128.56;4407549;32;19996;-74
2022/02/25 07:32:06;;;;;;;;;;;;;;;13.58;43.34;101146.88;4405907;32;19972;-73
2022/02/25 07:34:32;;;;;;;;;;;;;;;14.17;42.36;101142.63;4406363;32;19997;-74
2022/02/25 07:36:57;;;;;;;;;;;;;;;14.04;42.80;101156.75;4408409;32;20308;-73
2022/02/25 07:39:22;;;;;;;;;;;;;;;13.74;43.38;101149.59;4404882;32;20195;-73
2022/02/25 07:41:48;;;;;;;;;;;;;;;14.40;42.12;101164.94;4406303;32;20008;-73
2022/02/25 07:44:13;;;;;;;;;;;;;;;14.49;41.63;101168.66;4404135;32;19992;-73
2022/02/25 07:46:39;;;;;;;;;;;;;;;14.31;41.90;101170.47;4404915;32;19953;-73
2022/02/25 07:49:05;;;;;;;;;;;;;;;14.31;41.99;101185.44;4397388;32;20032;-73
2022/02/25 07:51:31;;;;;;;;;;;;;;;13.98;42.24;101193.31;4404199;32;20350;-73
2022/02/25 07:53:56;;;;;;;;;;;;;;;14.62;41.33;101196.97;4404671;32;20003;-73
2022/02/25 07:56:23;;;;;;;;;;;;;;;14.35;41.23;101194.59;4403497;32;19997;-73
2022/02/25 07:58:49;;;;;;;;;;;;;;;14.67;40.96;101204.88;4401881;32;20435;-73
2022/02/25 08:01:15;;;;;;;;;;;;;;;14.78;40.89;101223.13;4400959;32;20028;-73
2022/02/25 08:03:41;;;;;;;;;;;;;;;14.25;41.78;101223.25;4395737;32;19958;-73
2022/02/25 08:06:06;;;;;;;;;;;;;;;14.55;41.40;101225.53;4405690;32;20010;-74
2022/02/25 08:08:32;;;;;;;;;;;;;;;14.22;41.86;101229.78;4409695;32;19964;-74
2022/02/25 08:10:58;;;;;;;;;;;;;;;14.82;41.07;101229.44;4411094;32;19993;-74
2022/02/25 08:13:24;;;;;;;;;;;;;;;14.88;40.74;101221.94;4406132;32;20132;-74
2022/02/25 08:15:49;;;;;;;;;;;;;;;14.70;41.17;101226.66;4407056;32;20009;-74
2022/02/25 08:18:15;;;;;;;;;;;;;;;14.90;40.79;101227.16;4408509;32;20571;-74
2022/02/25 08:20:41;;;;;;;;;;;;;;;14.90;40.51;101215.81;4406090;32;20004;-73
2022/02/25 08:23:07;;;;;;;;;;;;;;;14.98;39.98;101237.81;4402025;32;20013;-73
2022/02/25 08:25:36;;;;;;;;;;;;;;;14.98;40.20;101220.00;4407494;32;19975;-73
2022/02/25 08:28:03;;;;;;;;;;;;;;;15.36;39.27;101227.16;4404784;32;19993;-73
2022/02/25 08:30:29;;;;;;;;;;;;;;;14.99;40.33;101227.25;4405306;32;19993;-72
2022/02/25 08:33:00;;;;;;;;;;;;;;;14.98;40.21;101237.81;4409047;32;20457;-73
2022/02/25 08:35:26;;;;;;;;;;;;;;;15.06;40.18;101230.66;4405596;32;20277;-73
2022/02/25 08:37:52;;;;;;;;;;;;;;;14.61;40.88;101254.88;4397310;32;20475;-73
2022/02/25 08:40:18;;;;;;;;;;;;;;;15.56;39.50;101261.69;4391077;32;19961;-73
2022/02/25 08:42:44;;;;;;;;;;;;;;;15.48;39.67;101265.25;4401136;32;20324;-72
2022/02/25 08:45:10;;;;;;;;;;;;;;;15.54;39.41;101291.78;4405556;32;20546;-72
2022/02/25 08:47:37;;;;;;;;;;;;;;;15.45;39.85;101272.66;4406426;32;19971;-72
2022/02/25 08:50:03;;;;;;;;;;;;;;;15.78;39.33;101298.63;4406792;32;20382;-71
2022/02/25 08:52:29;;;;;;;;;;;;;;;16.41;38.39;101295.41;4410964;32;19990;-72
2022/02/25 08:54:55;;;;;;;;;;;;;;;15.66;39.89;101294.59;4407014;32;20008;-72
2022/02/25 08:57:21;;;;;;;;;;;;;;;16.52;38.40;101307.16;4412358;32;20008;-72
2022/02/25 08:59:46;;;;;;;;;;;;;;;16.44;38.38;101320.09;4410589;32;20386;-70
2022/02/25 09:02:12;;;;;;;;;;;;;;;16.37;37.70;101317.47;4411821;32;19975;-72
2022/02/25 09:04:38;;;;;;;;;;;;;;;16.94;37.23;101331.06;4410640;32;20299;-71
2022/02/25 09:07:04;;;;;;;;;;;;;;;16.48;37.61;101330.06;4408898;32;20090;-72
2022/02/25 09:09:29;;;;;;;;;;;;;;;17.20;36.41;101338.06;4399173;32;20085;-73
2022/02/25 09:11:55;;;;;;;;;;;;;;;17.37;36.25;101339.41;4408360;32;19962;-73
2022/02/25 09:14:21;;;;;;;;;;;;;;;16.67;36.42;101354.47;4411957;32;20004;-72
2022/02/25 09:16:47;;;;;;;;;;;;;;;17.56;34.99;101360.97;4408026;32;20383;-73
2022/02/25 09:19:13;;;;;;;;;;;;;;;17.24;35.14;101362.28;4410428;32;19997;-73
2022/02/25 09:21:39;;;;;;;;;;;;;;;16.53;36.11;101359.88;4411397;32;19992;-73
2022/02/25 09:24:06;;;;;;;;;;;;;;;17.58;35.47;101369.84;4410670;32;20611;-73
2022/02/25 09:26:32;;;;;;;;;;;;;;;18.02;33.54;101373.19;4409252;32;20002;-72
2022/02/25 09:28:58;;;;;;;;;;;;;;;18.23;33.43;101360.81;4411176;32;20262;-72
2022/02/25 09:31:24;;;;;;;;;;;;;;;17.89;32.79;101376.19;4406761;32;20001;-72
2022/02/25 09:33:49;;;;;;;;;;;;;;;18.55;32.14;101392.31;4410138;32;19953;-72
2022/02/25 09:36:15;;;;;;;;;;;;;;;19.07;31.84;101389.00;4406135;32;20007;-71
2022/02/25 09:38:41;;;;;;;;;;;;;;;19.07;31.60;101396.75;4409148;32;19992;-72
2022/02/25 09:41:07;;;;;;;;;;;;;;;19.47;30.90;101400.88;4397805;32;19968;-71
2022/02/25 09:43:33;;;;;;;;;;;;;;;19.83;30.75;101416.19;4409942;32;19990;-72
2022/02/25 09:46:00;;;;;;;;;;;;;;;19.62;30.90;101427.44;4406772;32;19961;-71
2022/02/25 09:48:26;;;;;;;;;;;;;;;19.60;31.04;101420.63;4406419;32;19961;-72
2022/02/25 09:50:52;;;;;;;;;;;;;;;19.84;31.17;101432.84;4408755;32;19988;-71
2022/02/25 09:53:18;;;;;;;;;;;;;;;19.59;31.32;101434.13;4411040;32;20588;-72
2022/02/25 09:55:44;;;;;;;;;;;;;;;19.69;31.12;101434.84;4410363;32;19972;-72
2022/02/25 09:58:10;;;;;;;;;;;;;;;18.97;31.64;101446.56;4405095;32;20386;-72
2022/02/25 10:00:36;;;;;;;;;;;;;;;19.46;31.17;101464.16;4407199;32;20018;-72
2022/02/25 10:03:04;;;;;;;;;;;;;;;19.83;31.02;101459.03;4408944;32;20072;-73
2022/02/25 10:05:31;;;;;;;;;;;;;;;19.14;32.01;101462.03;4404667;32;20260;-73
2022/02/25 10:08:06;;;;;;;;;;;;;;;19.52;31.80;101467.94;4395449;32;19961;-72
2022/02/25 10:10:39;;;;;;;;;;;;;;;19.89;30.78;101466.47;4411166;32;20003;-72
2022/02/25 10:13:04;;;;;;;;;;;;;;;19.96;30.62;101473.87;4411035;32;19977;-72
2022/02/25 10:15:31;;;;;;;;;;;;;;;19.90;31.06;101478.66;4408668;32;19976;-73
2022/02/25 10:18:02;;;;;;;;;;;;;;;20.23;30.40;101488.00;4405811;32;19958;-72
2022/02/25 10:20:27;;;;;;;;;;;;;;;20.83;29.25;101488.47;4406932;32;19997;-71
2022/02/25 10:22:53;;;;;;;;;;;;;;;20.71;29.06;101496.03;4407155;32;20470;-71
2022/02/25 10:25:21;;;;;;;;;;;;;;;20.68;28.94;101510.53;4408891;32;20303;-71
2022/02/25 10:27:47;;;;;;;;;;;;;;;20.89;29.15;101515.88;4412006;32;20057;-71
2022/02/25 10:30:15;;;;;;;;;;;;;;;21.59;28.53;101522.63;4410317;32;20008;-71
2022/02/25 10:35:37;;;;;;;;;;;;;;;21.79;27.64;101550.56;3946047;32;15780564;-72
2022/02/25 10:40:41;;;;;;;;;;;;;;;21.12;28.76;101549.41;3943413;31;15723243;-72
2022/02/25 10:43:09;;;;;;;;;;;;;;;21.12;28.76;101549.41;4412624;32;20011;-73
2022/02/25 10:45:37;;;;;;;;;;;;;;;20.51;29.64;101550.22;4413236;32;19989;-73
2022/02/25 10:48:04;;;;;;;;;;;;;;;20.61;29.32;101551.72;4408811;32;20053;-73
2022/02/25 10:50:30;;;;;;;;;;;;;;;21.12;28.61;101557.19;4401469;32;20223;-71
2022/02/25 10:52:56;;;;;;;;;;;;;;;20.81;28.60;101556.81;4400548;32;19976;-72
2022/02/25 10:55:24;;;;;;;;;;;;;;;20.89;29.18;101560.91;4407408;32;20000;-72
2022/02/25 10:57:51;;;;;;;;;;;;;;;20.30;29.53;101573.41;4412618;32;19989;-72
2022/02/25 11:00:17;;;;;;;;;;;;;;;20.37;29.30;101581.63;4410013;32;20370;-73
2022/02/25 11:02:46;;;;;;;;;;;;;;;19.97;30.31;101581.19;4410083;32;20358;-72
2022/02/25 11:05:15;;;;;;;;;;;;;;;20.41;29.97;101591.62;4410409;32;19977;-75
2022/02/25 11:07:42;;;;;;;;;;;;;;;20.68;29.00;101587.75;4413293;32;20532;-72
2022/02/25 11:10:09;;;;;;;;;;;;;;;21.25;29.21;101595.72;4411863;32;19974;-72
2022/02/25 11:12:36;;;;;;;;;;;;;;;20.76;29.14;101601.19;4411464;32;20431;-72
2022/02/25 11:15:03;;;;;;;;;;;;;;;21.24;28.85;101594.16;4414665;32;20526;-72
2022/02/25 11:17:29;;;;;;;;;;;;;;;21.80;28.73;101600.84;4411636;32;20031;-72
2022/02/25 11:19:57;;;;;;;;;;;;;;;22.38;28.16;101617.94;4411459;32;20045;-72
2022/02/25 11:22:24;;;;;;;;;;;;;;;23.04;26.50;101613.13;4410880;32;20041;-72
2022/02/25 11:24:50;;;;;;;;;;;;;;;22.73;26.53;101628.12;4410369;32;19958;-72
2022/02/25 11:27:16;;;;;;;;;;;;;;;23.22;26.31;101638.62;4409384;32;20009;-72
2022/02/25 11:29:53;;;;;;;;;;;;;;;22.22;26.82;101652.91;4408470;32;20319;-72
2022/02/25 11:32:21;;;;;;;;;;;;;;;23.22;26.33;101636.56;4408281;32;20443;-72
2022/02/25 11:34:47;;;;;;;;;;;;;;;22.94;25.93;101646.91;4408841;32;20359;-72
2022/02/25 11:37:13;;;;;;;;;;;;;;;23.38;26.06;101646.69;4408523;32;20012;-72
2022/02/25 11:39:43;;;;;;;;;;;;;;;23.99;25.91;101648.06;4409384;32;20983;-74
2022/02/25 11:42:10;;;;;;;;;;;;;;;23.15;25.34;101657.09;4413488;32;19968;-73
2022/02/25 11:44:35;;;;;;;;;;;;;;;23.24;24.93;101671.34;4411161;32;20024;-73
2022/02/25 11:47:02;;;;;;;;;;;;;;;22.48;24.62;101680.41;4407872;32;20375;-72
2022/02/25 11:49:30;;;;;;;;;;;;;;;22.37;24.98;101676.59;4410070;32;19993;-72
2022/02/25 11:54:35;;;;;;;;;;;;;;;24.69;24.17;101691.50;3959740;31;15718089;-73
2022/02/25 12:02:19;;;;;;;;;;;;;;;25.54;21.95;101689.28;3946466;32;15723787;-73
2022/02/25 12:04:47;;;;;;;;;;;;;;;25.54;21.95;101689.28;4422926;32;20029;-73
2022/02/25 12:20:20;;;;;;;;;;;;;;;24.67;22.17;101694.13;3947967;32;15726716;-72
2022/02/25 12:23:02;;;;;;;;;;;;;;;24.67;22.17;101694.13;4430299;32;20019;-72
2022/02/25 12:25:44;;;;;;;;;;;;;;;24.69;21.57;101700.16;4433231;32;20041;-72
2022/02/25 12:30:47;;;;;;;;;;;;;;;23.05;23.06;101718.06;3901067;32;15723531;-72
2022/02/25 12:36:07;;;;;;;;;;;;;;;22.34;24.50;101741.50;3946779;32;15723426;-73
2022/02/25 12:38:37;;;;;;;;;;;;;;;22.34;24.50;101741.50;4422991;32;20414;-72
2022/02/25 12:41:19;;;;;;;;;;;;;;;22.48;24.10;101729.19;4424403;32;20631;-72
2022/02/25 12:43:47;;;;;;;;;;;;;;;23.60;23.83;101730.25;4423233;32;20075;-73
2022/02/25 12:46:13;;;;;;;;;;;;;;;24.11;21.65;101738.13;4425027;32;20096;-73
2022/02/25 12:48:39;;;;;;;;;;;;;;;23.75;21.52;101724.41;4423789;32;20026;-73
2022/02/25 12:51:06;;;;;;;;;;;;;;;23.87;22.05;101728.97;4423786;32;19969;-72
2022/02/25 12:53:45;;;;;;;;;;;;;;;23.76;22.86;101725.97;4424847;32;20378;-72
2022/02/25 12:56:11;;;;;;;;;;;;;;;24.10;22.02;101727.91;4422751;32;19957;-73
2022/02/25 12:58:37;;;;;;;;;;;;;;;23.59;22.09;101727.91;4417648;32;20335;-73
2022/02/25 13:01:03;;;;;;;;;;;;;;;24.14;21.42;101729.25;4421497;32;20247;-73
2022/02/25 13:03:29;;;;;;;;;;;;;;;24.71;20.43;101741.53;4411672;32;20241;-73
2022/02/25 13:05:55;;;;;;;;;;;;;;;24.78;21.29;101718.00;4421356;32;20202;-73
2022/02/25 13:08:21;;;;;;;;;;;;;;;25.12;20.50;101728.41;4421902;32;20052;-74